sensor_id;sensor_type;location;lat;lon;timestamp;temperature;humidity
9824;DHT22;4951;50.778;7.196;2024-02-28T00:02:03;3.90;1.00
9824;DHT22;4951;50.778;7.196;2024-02-28T00:04:31;3.90;1.00
9824;DHT22;4951;50.778;7.196;2024-02-28T00:07:02;3.90;1.00
9824;DHT22;4951;50.778;7.196;2024-02-28T00:09:32;3.90;1.00
9824;DHT22;4951;50.778;7.196;2024-02-28T00:12:02;3.90;1.00
9824;DHT22;4951;50.778;7.196;2024-02-28T00:14:34;3.90;1.00
9824;DHT22;4951;50.778;7.196;2024-02-28T00:17:07;4.00;1.00
9824;DHT22;4951;50.778;7.196;2024-02-28T00:19:38;4.00;1.00
9824;DHT22;4951;50.778;7.196;2024-02-28T00:22:19;4.00;1.00
9824;DHT22;4951;50.778;7.196;2024-02-28T00:24:52;4.00;1.00
9824;DHT22;4951;50.778;7.196;2024-02-28T00:27:28;4.00;1.00
9824;DHT22;4951;50.778;7.196;2024-02-28T00:30:04;4.00;1.00
9824;DHT22;4951;50.778;7.196;2024-02-28T00:32:52;4.00;1.00
9824;DHT22;4951;50.778;7.196;2024-02-28T00:35:23;4.00;1.00
9824;DHT22;4951;50.778;7.196;2024-02-28T00:38:10;4.00;1.00
9824;DHT22;4951;50.778;7.196;2024-02-28T00:40:42;4.00;1.00
9824;DHT22;4951;50.778;7.196;2024-02-28T00:43:14;4.00;1.00
9824;DHT22;4951;50.778;7.196;2024-02-28T00:45:47;4.00;1.00
9824;DHT22;4951;50.778;7.196;2024-02-28T00:48:14;4.00;1.00
9824;DHT22;4951;50.778;7.196;2024-02-28T00:50:46;4.00;1.00
9824;DHT22;4951;50.778;7.196;2024-02-28T00:53:15;4.00;1.00
9824;DHT22;4951;50.778;7.196;2024-02-28T00:55:46;4.00;1.00
9824;DHT22;4951;50.778;7.196;2024-02-28T00:58:17;4.10;1.00
9824;DHT22;4951;50.778;7.196;2024-02-28T01:00:47;4.10;1.00
9824;DHT22;4951;50.778;7.196;2024-02-28T01:03:19;4.10;1.00
9824;DHT22;4951;50.778;7.196;2024-02-28T01:05:50;4.10;1.00
9824;DHT22;4951;50.778;7.196;2024-02-28T01:08:22;4.20;1.00
9824;DHT22;4951;50.778;7.196;2024-02-28T01:11:00;4.20;1.00
9824;DHT22;4951;50.778;7.196;2024-02-28T01:13:31;4.20;1.00
9824;DHT22;4951;50.778;7.196;2024-02-28T01:16:01;4.20;1.00
9824;DHT22;4951;50.778;7.196;2024-02-28T01:18:32;4.20;1.00
9824;DHT22;4951;50.778;7.196;2024-02-28T01:21:07;4.20;1.00
9824;DHT22;4951;50.778;7.196;2024-02-28T01:23:39;4.20;1.00
9824;DHT22;4951;50.778;7.196;2024-02-28T01:26:16;4.20;1.00
9824;DHT22;4951;50.778;7.196;2024-02-28T01:28:55;4.20;1.00
9824;DHT22;4951;50.778;7.196;2024-02-28T01:31:35;4.30;1.00
9824;DHT22;4951;50.778;7.196;2024-02-28T01:34:13;4.30;1.00
9824;DHT22;4951;50.778;7.196;2024-02-28T01:36:55;4.30;1.00
9824;DHT22;4951;50.778;7.196;2024-02-28T01:39:35;4.30;1.00
9824;DHT22;4951;50.778;7.196;2024-02-28T01:42:24;4.30;1.00
9824;DHT22;4951;50.778;7.196;2024-02-28T01:45:13;4.20;1.00
9824;DHT22;4951;50.778;7.196;2024-02-28T01:47:56;4.30;1.00
9824;DHT22;4951;50.778;7.196;2024-02-28T01:50:31;4.30;1.00
9824;DHT22;4951;50.778;7.196;2024-02-28T01:53:01;4.30;1.00
9824;DHT22;4951;50.778;7.196;2024-02-28T01:55:31;4.30;1.00
9824;DHT22;4951;50.778;7.196;2024-02-28T01:58:05;4.30;1.00
9824;DHT22;4951;50.778;7.196;2024-02-28T02:00:36;4.30;1.00
9824;DHT22;4951;50.778;7.196;2024-02-28T02:03:10;4.30;1.00
9824;DHT22;4951;50.778;7.196;2024-02-28T02:05:42;4.30;1.00
9824;DHT22;4951;50.778;7.196;2024-02-28T02:08:13;4.30;1.00
9824;DHT22;4951;50.778;7.196;2024-02-28T02:10:51;4.20;1.00
9824;DHT22;4951;50.778;7.196;2024-02-28T02:13:26;4.30;1.00
9824;DHT22;4951;50.778;7.196;2024-02-28T02:16:03;4.20;1.00
9824;DHT22;4951;50.778;7.196;2024-02-28T02:18:31;4.20;1.00
9824;DHT22;4951;50.778;7.196;2024-02-28T02:21:02;4.20;1.00
9824;DHT22;4951;50.778;7.196;2024-02-28T02:23:53;4.20;1.00
9824;DHT22;4951;50.778;7.196;2024-02-28T02:26:24;4.20;1.00
9824;DHT22;4951;50.778;7.196;2024-02-28T02:28:52;4.30;1.00
9824;DHT22;4951;50.778;7.196;2024-02-28T02:31:23;4.30;1.00
9824;DHT22;4951;50.778;7.196;2024-02-28T02:33:54;4.20;1.00
9824;DHT22;4951;50.778;7.196;2024-02-28T02:36:23;4.30;1.00
9824;DHT22;4951;50.778;7.196;2024-02-28T02:38:56;4.30;1.00
9824;DHT22;4951;50.778;7.196;2024-02-28T02:41:28;4.30;1.00
9824;DHT22;4951;50.778;7.196;2024-02-28T02:43:57;4.30;1.00
9824;DHT22;4951;50.778;7.196;2024-02-28T02:46:44;4.20;1.00
9824;DHT22;4951;50.778;7.196;2024-02-28T02:49:12;4.20;1.00
9824;DHT22;4951;50.778;7.196;2024-02-28T02:51:40;4.20;1.00
9824;DHT22;4951;50.778;7.196;2024-02-28T02:54:15;4.20;1.00
9824;DHT22;4951;50.778;7.196;2024-02-28T02:56:46;4.20;1.00
9824;DHT22;4951;50.778;7.196;2024-02-28T02:59:15;4.20;1.00
9824;DHT22;4951;50.778;7.196;2024-02-28T03:01:45;4.30;1.00
9824;DHT22;4951;50.778;7.196;2024-02-28T03:04:18;4.20;1.00
9824;DHT22;4951;50.778;7.196;2024-02-28T03:06:46;4.20;1.00
9824;DHT22;4951;50.778;7.196;2024-02-28T03:09:20;4.20;1.00
9824;DHT22;4951;50.778;7.196;2024-02-28T03:11:51;4.20;1.00
9824;DHT22;4951;50.778;7.196;2024-02-28T03:14:27;4.20;1.00
9824;DHT22;4951;50.778;7.196;2024-02-28T03:17:10;4.20;1.00
9824;DHT22;4951;50.778;7.196;2024-02-28T03:19:39;4.20;1.00
9824;DHT22;4951;50.778;7.196;2024-02-28T03:22:14;4.20;1.00
9824;DHT22;4951;50.778;7.196;2024-02-28T03:24:45;4.20;1.00
9824;DHT22;4951;50.778;7.196;2024-02-28T03:27:17;4.20;1.00
9824;DHT22;4951;50.778;7.196;2024-02-28T03:30:05;4.20;1.00
9824;DHT22;4951;50.778;7.196;2024-02-28T03:32:42;4.20;1.00
9824;DHT22;4951;50.778;7.196;2024-02-28T03:35:16;4.20;1.00
9824;DHT22;4951;50.778;7.196;2024-02-28T03:37:49;4.20;1.00
9824;DHT22;4951;50.778;7.196;2024-02-28T03:40:20;4.10;1.00
9824;DHT22;4951;50.778;7.196;2024-02-28T03:42:49;4.10;1.00
9824;DHT22;4951;50.778;7.196;2024-02-28T03:45:20;4.20;1.00
9824;DHT22;4951;50.778;7.196;2024-02-28T03:47:53;4.10;1.00
9824;DHT22;4951;50.778;7.196;2024-02-28T03:50:32;4.10;1.00
9824;DHT22;4951;50.778;7.196;2024-02-28T03:53:05;4.10;1.00
9824;DHT22;4951;50.778;7.196;2024-02-28T03:55:37;4.10;1.00
9824;DHT22;4951;50.778;7.196;2024-02-28T03:58:08;4.10;1.00
9824;DHT22;4951;50.778;7.196;2024-02-28T04:00:42;4.10;1.00
9824;DHT22;4951;50.778;7.196;2024-02-28T04:03:24;4.10;1.00
9824;DHT22;4951;50.778;7.196;2024-02-28T04:05:57;4.10;1.00
9824;DHT22;4951;50.778;7.196;2024-02-28T04:08:29;4.10;1.00
9824;DHT22;4951;50.778;7.196;2024-02-28T04:11:02;4.10;1.00
9824;DHT22;4951;50.778;7.196;2024-02-28T04:13:30;4.10;1.00
9824;DHT22;4951;50.778;7.196;2024-02-28T04:16:03;4.10;1.00
9824;DHT22;4951;50.778;7.196;2024-02-28T04:18:34;4.10;1.00
9824;DHT22;4951;50.778;7.196;2024-02-28T04:21:17;4.20;1.00
9824;DHT22;4951;50.778;7.196;2024-02-28T04:23:59;4.10;1.00
9824;DHT22;4951;50.778;7.196;2024-02-28T04:26:35;4.10;1.00
9824;DHT22;4951;50.778;7.196;2024-02-28T04:29:08;4.20;1.00
9824;DHT22;4951;50.778;7.196;2024-02-28T04:31:51;4.20;1.00
9824;DHT22;4951;50.778;7.196;2024-02-28T04:34:21;4.20;1.00
9824;DHT22;4951;50.778;7.196;2024-02-28T04:37:03;4.20;1.00
9824;DHT22;4951;50.778;7.196;2024-02-28T04:39:42;4.20;1.00
9824;DHT22;4951;50.778;7.196;2024-02-28T04:42:24;4.10;1.00
9824;DHT22;4951;50.778;7.196;2024-02-28T04:44:54;4.20;1.00
9824;DHT22;4951;50.778;7.196;2024-02-28T04:47:22;4.20;1.00
9824;DHT22;4951;50.778;7.196;2024-02-28T04:49:58;4.10;1.00
9824;DHT22;4951;50.778;7.196;2024-02-28T04:52:27;4.10;1.00
9824;DHT22;4951;50.778;7.196;2024-02-28T04:55:14;4.20;1.00
9824;DHT22;4951;50.778;7.196;2024-02-28T04:57:46;4.10;1.00
9824;DHT22;4951;50.778;7.196;2024-02-28T05:00:20;4.20;1.00
9824;DHT22;4951;50.778;7.196;2024-02-28T05:02:58;4.20;1.00
9824;DHT22;4951;50.778;7.196;2024-02-28T05:05:35;4.20;1.00
9824;DHT22;4951;50.778;7.196;2024-02-28T05:08:08;4.10;1.00
9824;DHT22;4951;50.778;7.196;2024-02-28T05:10:43;4.10;1.00
9824;DHT22;4951;50.778;7.196;2024-02-28T05:13:13;4.10;1.00
9824;DHT22;4951;50.778;7.196;2024-02-28T05:15:47;4.10;1.00
9824;DHT22;4951;50.778;7.196;2024-02-28T05:18:19;4.10;1.00
9824;DHT22;4951;50.778;7.196;2024-02-28T05:20:53;4.00;1.00
9824;DHT22;4951;50.778;7.196;2024-02-28T05:23:29;4.00;1.00
9824;DHT22;4951;50.778;7.196;2024-02-28T05:25:56;4.00;1.00
9824;DHT22;4951;50.778;7.196;2024-02-28T05:28:39;4.00;1.00
9824;DHT22;4951;50.778;7.196;2024-02-28T05:31:21;4.00;1.00
9824;DHT22;4951;50.778;7.196;2024-02-28T05:33:50;4.00;1.00
9824;DHT22;4951;50.778;7.196;2024-02-28T05:36:29;4.00;1.00
9824;DHT22;4951;50.778;7.196;2024-02-28T05:39:01;4.00;1.00
9824;DHT22;4951;50.778;7.196;2024-02-28T05:41:31;4.00;1.00
9824;DHT22;4951;50.778;7.196;2024-02-28T05:44:02;4.00;1.00
9824;DHT22;4951;50.778;7.196;2024-02-28T05:46:39;4.00;1.00
9824;DHT22;4951;50.778;7.196;2024-02-28T05:49:13;4.00;1.00
9824;DHT22;4951;50.778;7.196;2024-02-28T05:51:50;4.00;1.00
9824;DHT22;4951;50.778;7.196;2024-02-28T05:54:18;4.00;1.00
9824;DHT22;4951;50.778;7.196;2024-02-28T05:56:47;4.00;1.00
9824;DHT22;4951;50.778;7.196;2024-02-28T05:59:17;4.00;1.00
9824;DHT22;4951;50.778;7.196;2024-02-28T06:01:47;4.00;1.00
9824;DHT22;4951;50.778;7.196;2024-02-28T06:04:15;4.00;1.00
9824;DHT22;4951;50.778;7.196;2024-02-28T06:06:48;4.00;1.00
9824;DHT22;4951;50.778;7.196;2024-02-28T06:09:29;4.00;1.00
9824;DHT22;4951;50.778;7.196;2024-02-28T06:12:00;4.10;1.00
9824;DHT22;4951;50.778;7.196;2024-02-28T06:14:43;4.00;1.00
9824;DHT22;4951;50.778;7.196;2024-02-28T06:17:21;4.00;1.00
9824;DHT22;4951;50.778;7.196;2024-02-28T06:19:53;4.00;1.00
9824;DHT22;4951;50.778;7.196;2024-02-28T06:22:31;4.00;1.00
9824;DHT22;4951;50.778;7.196;2024-02-28T06:25:07;4.00;1.00
9824;DHT22;4951;50.778;7.196;2024-02-28T06:27:53;4.00;1.00
9824;DHT22;4951;50.778;7.196;2024-02-28T06:30:24;4.00;1.00
9824;DHT22;4951;50.778;7.196;2024-02-28T06:32:59;4.00;1.00
9824;DHT22;4951;50.778;7.196;2024-02-28T06:35:36;3.90;1.00
9824;DHT22;4951;50.778;7.196;2024-02-28T06:38:14;3.90;1.00
9824;DHT22;4951;50.778;7.196;2024-02-28T06:40:47;3.90;1.00
9824;DHT22;4951;50.778;7.196;2024-02-28T06:43:25;3.90;1.00
9824;DHT22;4951;50.778;7.196;2024-02-28T06:46:13;3.90;1.00
9824;DHT22;4951;50.778;7.196;2024-02-28T06:48:41;3.90;1.00
9824;DHT22;4951;50.778;7.196;2024-02-28T06:51:09;3.90;1.00
9824;DHT22;4951;50.778;7.196;2024-02-28T06:53:40;3.90;1.00
9824;DHT22;4951;50.778;7.196;2024-02-28T06:56:09;3.90;1.00
9824;DHT22;4951;50.778;7.196;2024-02-28T06:58:37;3.90;1.00
9824;DHT22;4951;50.778;7.196;2024-02-28T07:01:05;3.90;1.00
9824;DHT22;4951;50.778;7.196;2024-02-28T07:03:37;3.90;1.00
9824;DHT22;4951;50.778;7.196;2024-02-28T07:06:06;3.90;1.00
9824;DHT22;4951;50.778;7.196;2024-02-28T07:08:39;3.90;1.00
9824;DHT22;4951;50.778;7.196;2024-02-28T07:11:13;4.00;1.00
9824;DHT22;4951;50.778;7.196;2024-02-28T07:13:41;4.00;1.00
9824;DHT22;4951;50.778;7.196;2024-02-28T07:16:11;4.00;1.00
9824;DHT22;4951;50.778;7.196;2024-02-28T07:18:44;4.10;1.00
9824;DHT22;4951;50.778;7.196;2024-02-28T07:21:21;4.10;1.00
9824;DHT22;4951;50.778;7.196;2024-02-28T07:23:55;4.10;1.00
9824;DHT22;4951;50.778;7.196;2024-02-28T07:26:23;4.10;1.00
9824;DHT22;4951;50.778;7.196;2024-02-28T07:28:53;4.10;1.00
9824;DHT22;4951;50.778;7.196;2024-02-28T07:31:30;4.20;1.00
9824;DHT22;4951;50.778;7.196;2024-02-28T07:33:59;4.20;1.00
9824;DHT22;4951;50.778;7.196;2024-02-28T07:36:29;4.20;1.00
9824;DHT22;4951;50.778;7.196;2024-02-28T07:38:58;4.20;1.00
9824;DHT22;4951;50.778;7.196;2024-02-28T07:41:27;4.30;1.00
9824;DHT22;4951;50.778;7.196;2024-02-28T07:43:55;4.40;1.00
9824;DHT22;4951;50.778;7.196;2024-02-28T07:46:24;4.40;1.00
9824;DHT22;4951;50.778;7.196;2024-02-28T07:48:53;4.50;1.00
9824;DHT22;4951;50.778;7.196;2024-02-28T07:51:22;4.60;1.00
9824;DHT22;4951;50.778;7.196;2024-02-28T07:53:49;4.60;1.00
9824;DHT22;4951;50.778;7.196;2024-02-28T07:56:17;4.60;1.00
9824;DHT22;4951;50.778;7.196;2024-02-28T07:58:45;4.70;1.00
9824;DHT22;4951;50.778;7.196;2024-02-28T08:01:12;4.70;1.00
9824;DHT22;4951;50.778;7.196;2024-02-28T08:03:39;4.70;1.00
9824;DHT22;4951;50.778;7.196;2024-02-28T08:06:07;4.70;1.00
9824;DHT22;4951;50.778;7.196;2024-02-28T08:08:36;4.70;1.00
9824;DHT22;4951;50.778;7.196;2024-02-28T08:11:03;4.70;1.00
9824;DHT22;4951;50.778;7.196;2024-02-28T08:13:31;4.80;1.00
9824;DHT22;4951;50.778;7.196;2024-02-28T08:15:58;4.80;1.00
9824;DHT22;4951;50.778;7.196;2024-02-28T08:18:26;4.80;1.00
9824;DHT22;4951;50.778;7.196;2024-02-28T08:20:54;4.90;1.00
9824;DHT22;4951;50.778;7.196;2024-02-28T08:23:23;5.00;1.00
9824;DHT22;4951;50.778;7.196;2024-02-28T08:25:53;5.00;99.90
9824;DHT22;4951;50.778;7.196;2024-02-28T08:28:20;5.10;99.90
9824;DHT22;4951;50.778;7.196;2024-02-28T08:30:48;5.10;99.90
9824;DHT22;4951;50.778;7.196;2024-02-28T08:33:16;5.20;99.90
9824;DHT22;4951;50.778;7.196;2024-02-28T08:35:43;5.20;99.90
9824;DHT22;4951;50.778;7.196;2024-02-28T08:38:11;5.30;99.90
9824;DHT22;4951;50.778;7.196;2024-02-28T08:40:38;5.30;99.90
9824;DHT22;4951;50.778;7.196;2024-02-28T08:43:06;5.40;99.90
9824;DHT22;4951;50.778;7.196;2024-02-28T08:45:34;5.40;99.90
9824;DHT22;4951;50.778;7.196;2024-02-28T08:48:01;5.40;99.90
9824;DHT22;4951;50.778;7.196;2024-02-28T08:50:29;5.40;99.90
9824;DHT22;4951;50.778;7.196;2024-02-28T08:52:56;5.40;99.90
9824;DHT22;4951;50.778;7.196;2024-02-28T08:55:23;5.50;99.90
9824;DHT22;4951;50.778;7.196;2024-02-28T08:57:51;5.50;99.90
9824;DHT22;4951;50.778;7.196;2024-02-28T09:00:20;5.60;61.80
9824;DHT22;4951;50.778;7.196;2024-02-28T09:02:47;5.70;1.00
9824;DHT22;4951;50.778;7.196;2024-02-28T09:05:14;5.70;1.00
9824;DHT22;4951;50.778;7.196;2024-02-28T09:07:42;5.60;1.00
9824;DHT22;4951;50.778;7.196;2024-02-28T09:10:09;5.60;1.00
9824;DHT22;4951;50.778;7.196;2024-02-28T09:12:37;5.60;1.00
9824;DHT22;4951;50.778;7.196;2024-02-28T09:15:04;5.70;1.00
9824;DHT22;4951;50.778;7.196;2024-02-28T09:17:33;5.80;1.00
9824;DHT22;4951;50.778;7.196;2024-02-28T09:20:00;5.90;1.00
9824;DHT22;4951;50.778;7.196;2024-02-28T09:22:29;6.00;1.00
9824;DHT22;4951;50.778;7.196;2024-02-28T09:24:56;6.00;1.00
9824;DHT22;4951;50.778;7.196;2024-02-28T09:27:24;6.10;1.00
9824;DHT22;4951;50.778;7.196;2024-02-28T09:29:51;6.10;1.00
9824;DHT22;4951;50.778;7.196;2024-02-28T09:32:19;6.10;1.00
9824;DHT22;4951;50.778;7.196;2024-02-28T09:34:47;6.10;1.00
9824;DHT22;4951;50.778;7.196;2024-02-28T09:37:14;6.20;1.00
9824;DHT22;4951;50.778;7.196;2024-02-28T09:39:42;6.40;1.00
9824;DHT22;4951;50.778;7.196;2024-02-28T09:42:10;6.40;99.90
9824;DHT22;4951;50.778;7.196;2024-02-28T09:44:37;6.50;1.00
9824;DHT22;4951;50.778;7.196;2024-02-28T09:47:06;6.60;1.00
9824;DHT22;4951;50.778;7.196;2024-02-28T09:49:34;6.60;1.00
9824;DHT22;4951;50.778;7.196;2024-02-28T09:52:04;6.70;1.00
9824;DHT22;4951;50.778;7.196;2024-02-28T09:54:32;6.70;99.90
9824;DHT22;4951;50.778;7.196;2024-02-28T09:56:59;6.60;99.90
9824;DHT22;4951;50.778;7.196;2024-02-28T09:59:28;6.60;99.90
9824;DHT22;4951;50.778;7.196;2024-02-28T10:01:57;6.70;1.00
9824;DHT22;4951;50.778;7.196;2024-02-28T10:04:26;6.70;19.30
9824;DHT22;4951;50.778;7.196;2024-02-28T10:06:54;6.80;99.90
9824;DHT22;4951;50.778;7.196;2024-02-28T10:09:23;6.80;99.90
9824;DHT22;4951;50.778;7.196;2024-02-28T10:11:50;6.90;99.90
9824;DHT22;4951;50.778;7.196;2024-02-28T10:14:18;6.80;1.00
9824;DHT22;4951;50.778;7.196;2024-02-28T10:16:45;6.80;1.00
9824;DHT22;4951;50.778;7.196;2024-02-28T10:19:12;6.90;1.00
9824;DHT22;4951;50.778;7.196;2024-02-28T10:21:40;7.00;1.00
9824;DHT22;4951;50.778;7.196;2024-02-28T10:24:07;7.20;1.00
9824;DHT22;4951;50.778;7.196;2024-02-28T10:26:43;7.30;1.00
9824;DHT22;4951;50.778;7.196;2024-02-28T10:29:10;7.40;99.90
9824;DHT22;4951;50.778;7.196;2024-02-28T10:31:38;7.50;1.00
9824;DHT22;4951;50.778;7.196;2024-02-28T10:34:07;7.60;99.90
9824;DHT22;4951;50.778;7.196;2024-02-28T10:36:36;7.70;99.90
9824;DHT22;4951;50.778;7.196;2024-02-28T10:39:05;7.80;99.90
9824;DHT22;4951;50.778;7.196;2024-02-28T10:41:34;7.90;1.00
9824;DHT22;4951;50.778;7.196;2024-02-28T10:44:03;8.10;99.90
9824;DHT22;4951;50.778;7.196;2024-02-28T10:46:30;8.20;1.00
9824;DHT22;4951;50.778;7.196;2024-02-28T10:48:58;8.20;1.00
9824;DHT22;4951;50.778;7.196;2024-02-28T10:51:26;8.20;1.00
9824;DHT22;4951;50.778;7.196;2024-02-28T10:54:08;8.30;1.00
9824;DHT22;4951;50.778;7.196;2024-02-28T10:56:37;8.20;1.00
9824;DHT22;4951;50.778;7.196;2024-02-28T10:59:08;8.20;1.00
9824;DHT22;4951;50.778;7.196;2024-02-28T11:01:37;8.30;55.40
9824;DHT22;4951;50.778;7.196;2024-02-28T11:04:08;8.30;1.00
9824;DHT22;4951;50.778;7.196;2024-02-28T11:06:46;8.40;99.90
9824;DHT22;4951;50.778;7.196;2024-02-28T11:09:19;8.50;99.90
9824;DHT22;4951;50.778;7.196;2024-02-28T11:11:48;8.60;1.00
9824;DHT22;4951;50.778;7.196;2024-02-28T11:14:17;8.70;1.00
9824;DHT22;4951;50.778;7.196;2024-02-28T11:16:47;8.70;99.90
9824;DHT22;4951;50.778;7.196;2024-02-28T11:19:21;8.80;1.00
9824;DHT22;4951;50.778;7.196;2024-02-28T11:21:53;8.90;99.90
9824;DHT22;4951;50.778;7.196;2024-02-28T11:24:23;9.00;1.00
9824;DHT22;4951;50.778;7.196;2024-02-28T11:26:51;9.10;1.00
9824;DHT22;4951;50.778;7.196;2024-02-28T11:29:24;9.30;99.90
9824;DHT22;4951;50.778;7.196;2024-02-28T11:31:52;9.30;1.00
9824;DHT22;4951;50.778;7.196;2024-02-28T11:34:20;9.30;99.90
9824;DHT22;4951;50.778;7.196;2024-02-28T11:36:48;9.30;99.90
9824;DHT22;4951;50.778;7.196;2024-02-28T11:39:17;9.30;1.00
9824;DHT22;4951;50.778;7.196;2024-02-28T11:41:44;9.30;1.00
9824;DHT22;4951;50.778;7.196;2024-02-28T11:44:12;9.40;99.90
9824;DHT22;4951;50.778;7.196;2024-02-28T11:46:44;9.50;10.60
9824;DHT22;4951;50.778;7.196;2024-02-28T11:49:12;9.60;99.90
9824;DHT22;4951;50.778;7.196;2024-02-28T11:51:40;9.70;99.90
9824;DHT22;4951;50.778;7.196;2024-02-28T11:54:08;9.70;1.00
9824;DHT22;4951;50.778;7.196;2024-02-28T11:56:36;9.90;1.00
9824;DHT22;4951;50.778;7.196;2024-02-28T11:59:04;10.00;94.70
9824;DHT22;4951;50.778;7.196;2024-02-28T12:01:37;10.00;1.00
9824;DHT22;4951;50.778;7.196;2024-02-28T12:04:06;10.00;99.90
9824;DHT22;4951;50.778;7.196;2024-02-28T12:06:34;10.10;99.90
9824;DHT22;4951;50.778;7.196;2024-02-28T12:09:03;10.10;99.90
9824;DHT22;4951;50.778;7.196;2024-02-28T12:11:31;10.30;99.90
9824;DHT22;4951;50.778;7.196;2024-02-28T12:13:59;10.40;1.00
9824;DHT22;4951;50.778;7.196;2024-02-28T12:16:27;10.50;1.00
9824;DHT22;4951;50.778;7.196;2024-02-28T12:18:54;10.60;1.00
9824;DHT22;4951;50.778;7.196;2024-02-28T12:21:23;10.80;1.00
9824;DHT22;4951;50.778;7.196;2024-02-28T12:23:50;10.90;99.90
9824;DHT22;4951;50.778;7.196;2024-02-28T12:26:18;11.00;1.00
9824;DHT22;4951;50.778;7.196;2024-02-28T12:28:46;11.20;1.00
9824;DHT22;4951;50.778;7.196;2024-02-28T12:31:13;11.40;1.00
9824;DHT22;4951;50.778;7.196;2024-02-28T12:33:40;11.70;1.00
9824;DHT22;4951;50.778;7.196;2024-02-28T12:36:08;11.70;40.80
9824;DHT22;4951;50.778;7.196;2024-02-28T12:38:39;11.70;1.00
9824;DHT22;4951;50.778;7.196;2024-02-28T12:41:07;11.70;99.90
9824;DHT22;4951;50.778;7.196;2024-02-28T12:43:34;11.70;99.90
9824;DHT22;4951;50.778;7.196;2024-02-28T12:46:02;11.80;1.00
9824;DHT22;4951;50.778;7.196;2024-02-28T12:48:29;11.80;1.00
9824;DHT22;4951;50.778;7.196;2024-02-28T12:50:57;11.80;1.00
9824;DHT22;4951;50.778;7.196;2024-02-28T12:53:24;11.90;1.00
9824;DHT22;4951;50.778;7.196;2024-02-28T12:55:53;12.00;1.00
9824;DHT22;4951;50.778;7.196;2024-02-28T12:58:20;11.90;1.00
9824;DHT22;4951;50.778;7.196;2024-02-28T13:00:49;11.90;1.00
9824;DHT22;4951;50.778;7.196;2024-02-28T13:03:16;11.90;1.00
9824;DHT22;4951;50.778;7.196;2024-02-28T13:05:43;12.00;1.00
9824;DHT22;4951;50.778;7.196;2024-02-28T13:08:11;12.00;99.90
9824;DHT22;4951;50.778;7.196;2024-02-28T13:10:38;12.10;99.90
9824;DHT22;4951;50.778;7.196;2024-02-28T13:13:08;12.10;1.00
9824;DHT22;4951;50.778;7.196;2024-02-28T13:15:35;12.20;99.90
9824;DHT22;4951;50.778;7.196;2024-02-28T13:18:02;12.20;1.00
9824;DHT22;4951;50.778;7.196;2024-02-28T13:20:33;12.20;1.00
9824;DHT22;4951;50.778;7.196;2024-02-28T13:23:01;12.30;1.00
9824;DHT22;4951;50.778;7.196;2024-02-28T13:25:28;12.40;1.00
9824;DHT22;4951;50.778;7.196;2024-02-28T13:27:55;12.50;1.00
9824;DHT22;4951;50.778;7.196;2024-02-28T13:30:24;12.60;1.00
9824;DHT22;4951;50.778;7.196;2024-02-28T13:32:51;12.60;1.00
9824;DHT22;4951;50.778;7.196;2024-02-28T13:35:19;12.80;99.90
9824;DHT22;4951;50.778;7.196;2024-02-28T13:37:46;13.00;1.00
9824;DHT22;4951;50.778;7.196;2024-02-28T13:40:13;13.20;99.90
9824;DHT22;4951;50.778;7.196;2024-02-28T13:42:41;13.40;99.90
9824;DHT22;4951;50.778;7.196;2024-02-28T13:45:08;13.40;1.00
9824;DHT22;4951;50.778;7.196;2024-02-28T13:47:38;13.40;1.00
9824;DHT22;4951;50.778;7.196;2024-02-28T13:50:05;13.60;1.00
9824;DHT22;4951;50.778;7.196;2024-02-28T13:52:35;13.60;1.00
9824;DHT22;4951;50.778;7.196;2024-02-28T13:55:02;13.80;1.00
9824;DHT22;4951;50.778;7.196;2024-02-28T13:57:30;13.80;1.00
9824;DHT22;4951;50.778;7.196;2024-02-28T13:59:57;13.80;1.00
9824;DHT22;4951;50.778;7.196;2024-02-28T14:02:24;13.80;1.00
9824;DHT22;4951;50.778;7.196;2024-02-28T14:04:54;13.70;1.00
9824;DHT22;4951;50.778;7.196;2024-02-28T14:07:20;13.70;1.00
9824;DHT22;4951;50.778;7.196;2024-02-28T14:09:48;13.80;1.00
9824;DHT22;4951;50.778;7.196;2024-02-28T14:12:15;13.80;99.90
9824;DHT22;4951;50.778;7.196;2024-02-28T14:14:42;13.70;99.90
9824;DHT22;4951;50.778;7.196;2024-02-28T14:17:10;13.60;99.90
9824;DHT22;4951;50.778;7.196;2024-02-28T14:19:37;13.50;99.90
9824;DHT22;4951;50.778;7.196;2024-02-28T14:22:08;13.30;99.90
9824;DHT22;4951;50.778;7.196;2024-02-28T14:24:36;13.10;99.90
9824;DHT22;4951;50.778;7.196;2024-02-28T14:27:05;12.90;99.90
9824;DHT22;4951;50.778;7.196;2024-02-28T14:29:33;12.90;99.90
9824;DHT22;4951;50.778;7.196;2024-02-28T14:32:00;12.80;99.90
9824;DHT22;4951;50.778;7.196;2024-02-28T14:34:27;12.80;99.90
9824;DHT22;4951;50.778;7.196;2024-02-28T14:36:57;12.80;99.90
9824;DHT22;4951;50.778;7.196;2024-02-28T14:39:26;12.80;99.90
9824;DHT22;4951;50.778;7.196;2024-02-28T14:41:53;12.80;99.90
9824;DHT22;4951;50.778;7.196;2024-02-28T14:44:20;12.70;99.90
9824;DHT22;4951;50.778;7.196;2024-02-28T14:46:46;12.60;99.90
9824;DHT22;4951;50.778;7.196;2024-02-28T14:49:13;12.50;99.90
9824;DHT22;4951;50.778;7.196;2024-02-28T14:51:43;12.60;99.90
9824;DHT22;4951;50.778;7.196;2024-02-28T14:54:14;12.60;99.90
9824;DHT22;4951;50.778;7.196;2024-02-28T14:56:43;12.60;99.90
9824;DHT22;4951;50.778;7.196;2024-02-28T14:59:10;12.60;99.90
9824;DHT22;4951;50.778;7.196;2024-02-28T15:01:37;12.70;99.90
9824;DHT22;4951;50.778;7.196;2024-02-28T15:04:04;12.70;99.90
9824;DHT22;4951;50.778;7.196;2024-02-28T15:06:34;12.60;99.90
9824;DHT22;4951;50.778;7.196;2024-02-28T15:09:01;12.60;99.90
9824;DHT22;4951;50.778;7.196;2024-02-28T15:11:29;12.60;99.90
9824;DHT22;4951;50.778;7.196;2024-02-28T15:13:57;12.60;99.90
9824;DHT22;4951;50.778;7.196;2024-02-28T15:16:25;12.50;99.90
9824;DHT22;4951;50.778;7.196;2024-02-28T15:18:52;12.40;99.90
9824;DHT22;4951;50.778;7.196;2024-02-28T15:21:19;12.30;99.90
9824;DHT22;4951;50.778;7.196;2024-02-28T15:23:46;12.20;99.90
9824;DHT22;4951;50.778;7.196;2024-02-28T15:26:14;12.00;99.90
9824;DHT22;4951;50.778;7.196;2024-02-28T15:28:42;11.80;99.90
9824;DHT22;4951;50.778;7.196;2024-02-28T15:31:10;11.70;99.90
9824;DHT22;4951;50.778;7.196;2024-02-28T15:33:38;11.60;99.90
9824;DHT22;4951;50.778;7.196;2024-02-28T15:36:05;11.50;99.90
9824;DHT22;4951;50.778;7.196;2024-02-28T15:38:33;11.40;99.90
9824;DHT22;4951;50.778;7.196;2024-02-28T15:41:00;11.20;99.90
9824;DHT22;4951;50.778;7.196;2024-02-28T15:43:28;11.10;99.90
9824;DHT22;4951;50.778;7.196;2024-02-28T15:45:55;11.10;99.90
9824;DHT22;4951;50.778;7.196;2024-02-28T15:48:23;11.10;99.90
9824;DHT22;4951;50.778;7.196;2024-02-28T15:50:51;11.00;99.90
9824;DHT22;4951;50.778;7.196;2024-02-28T15:53:18;11.00;1.00
9824;DHT22;4951;50.778;7.196;2024-02-28T15:55:46;11.00;1.00
9824;DHT22;4951;50.778;7.196;2024-02-28T15:58:13;11.00;1.00
9824;DHT22;4951;50.778;7.196;2024-02-28T16:00:40;11.00;1.00
9824;DHT22;4951;50.778;7.196;2024-02-28T16:03:07;10.90;1.00
9824;DHT22;4951;50.778;7.196;2024-02-28T16:05:36;10.90;1.00
9824;DHT22;4951;50.778;7.196;2024-02-28T16:08:03;10.80;1.00
9824;DHT22;4951;50.778;7.196;2024-02-28T16:10:31;10.80;1.00
9824;DHT22;4951;50.778;7.196;2024-02-28T16:12:58;10.70;1.00
9824;DHT22;4951;50.778;7.196;2024-02-28T16:15:29;10.70;1.00
9824;DHT22;4951;50.778;7.196;2024-02-28T16:17:57;10.60;1.00
9824;DHT22;4951;50.778;7.196;2024-02-28T16:20:25;10.60;1.00
9824;DHT22;4951;50.778;7.196;2024-02-28T16:22:53;10.50;1.00
9824;DHT22;4951;50.778;7.196;2024-02-28T16:25:21;10.40;1.00
9824;DHT22;4951;50.778;7.196;2024-02-28T16:27:48;10.30;1.00
9824;DHT22;4951;50.778;7.196;2024-02-28T16:30:16;10.20;1.00
9824;DHT22;4951;50.778;7.196;2024-02-28T16:32:43;10.10;1.00
9824;DHT22;4951;50.778;7.196;2024-02-28T16:35:11;10.00;1.00
9824;DHT22;4951;50.778;7.196;2024-02-28T16:37:39;9.90;1.00
9824;DHT22;4951;50.778;7.196;2024-02-28T16:40:08;9.80;48.00
9824;DHT22;4951;50.778;7.196;2024-02-28T16:42:36;9.70;99.90
9824;DHT22;4951;50.778;7.196;2024-02-28T16:45:05;9.60;99.90
9824;DHT22;4951;50.778;7.196;2024-02-28T16:47:33;9.50;99.90